createdAt,value
2022-12-19T00:01:38.305Z,14.60
2022-12-19T00:04:08.970Z,13.55
2022-12-19T00:06:37.991Z,13.60
2022-12-19T00:09:11.620Z,14.27
2022-12-19T00:11:39.864Z,14.10
2022-12-19T00:14:09.342Z,13.77
2022-12-19T00:16:37.002Z,13.60
2022-12-19T00:19:04.457Z,14.90
2022-12-19T00:21:35.080Z,15.10
2022-12-19T00:24:14.535Z,16.15
2022-12-19T00:26:49.511Z,15.63
2022-12-19T00:29:16.554Z,13.40
2022-12-19T00:31:44.410Z,14.85
2022-12-19T00:34:13.937Z,14.50
2022-12-19T00:36:41.000Z,14.38
2022-12-19T00:39:08.827Z,13.25
2022-12-19T00:41:41.838Z,13.20
2022-12-19T00:44:15.542Z,13.50
2022-12-19T00:46:42.796Z,13.13
2022-12-19T00:49:13.973Z,13.00
2022-12-19T00:51:40.922Z,12.63
2022-12-19T00:54:10.785Z,12.15
2022-12-19T00:56:39.421Z,13.55
2022-12-19T00:59:10.914Z,12.23
2022-12-19T01:01:41.352Z,14.15
2022-12-19T01:04:29.410Z,14.15
2022-12-19T01:07:01.996Z,14.40
2022-12-19T01:09:33.448Z,15.75
2022-12-19T01:12:20.460Z,14.75
2022-12-19T01:14:54.703Z,14.40
2022-12-19T01:17:25.766Z,15.43
2022-12-19T01:19:54.135Z,15.23
2022-12-19T01:22:22.662Z,14.05
2022-12-19T01:24:50.194Z,14.48
2022-12-19T01:27:17.269Z,12.90
2022-12-19T01:29:52.474Z,14.90
2022-12-19T01:32:21.363Z,15.13
2022-12-19T01:34:48.386Z,15.50
2022-12-19T01:37:19.357Z,14.15
2022-12-19T01:39:47.509Z,14.75
2022-12-19T01:42:23.084Z,14.77
2022-12-19T01:45:13.593Z,14.85
2022-12-19T01:47:53.614Z,14.35
2022-12-19T01:50:29.869Z,13.43
2022-12-19T01:52:58.825Z,15.95
2022-12-19T01:55:26.635Z,16.13
2022-12-19T01:57:55.364Z,13.82
2022-12-19T02:00:22.500Z,14.25
2022-12-19T02:03:08.997Z,14.75
2022-12-19T02:05:41.448Z,14.15
2022-12-19T02:08:09.809Z,13.57
2022-12-19T02:10:36.814Z,13.45
2022-12-19T02:13:04.731Z,13.50
2022-12-19T02:15:39.627Z,15.07
2022-12-19T02:18:19.843Z,12.73
2022-12-19T02:21:10.166Z,12.45
2022-12-19T02:23:40.108Z,14.00
2022-12-19T02:26:10.483Z,12.30
2022-12-19T02:28:57.050Z,12.70
2022-12-19T02:31:33.103Z,12.70
2022-12-19T02:34:16.372Z,12.00
2022-12-19T02:36:59.201Z,14.45
2022-12-19T02:39:33.695Z,11.63
2022-12-19T02:42:03.710Z,11.95
2022-12-19T02:44:36.557Z,13.27
2022-12-19T02:47:07.049Z,13.70
2022-12-19T02:49:37.977Z,13.30
2022-12-19T02:52:20.681Z,11.55
2022-12-19T02:54:55.409Z,12.23
2022-12-19T02:57:41.687Z,11.40
2022-12-19T03:00:39.759Z,11.77
2022-12-19T03:03:15.753Z,11.88
2022-12-19T03:05:51.009Z,11.60
2022-12-19T03:08:42.534Z,11.43
2022-12-19T03:11:14.907Z,11.48
2022-12-19T03:13:58.638Z,11.95
2022-12-19T03:16:26.230Z,10.60
2022-12-19T03:18:57.494Z,13.40
2022-12-19T03:21:29.681Z,11.82
2022-12-19T03:23:57.913Z,12.00
2022-12-19T03:26:28.848Z,11.82
2022-12-19T03:29:01.999Z,12.32
2022-12-19T03:31:33.319Z,11.88
2022-12-19T03:34:36.618Z,11.85
2022-12-19T03:37:06.800Z,12.85
2022-12-19T03:39:35.706Z,11.80
2022-12-19T03:42:23.728Z,12.10
2022-12-19T03:44:53.237Z,12.23
2022-12-19T03:47:42.145Z,12.43
2022-12-19T03:50:10.449Z,14.20
2022-12-19T03:53:12.959Z,12.45
2022-12-19T03:55:50.148Z,13.80
2022-12-19T03:58:30.694Z,11.90
2022-12-19T04:00:59.055Z,13.68
2022-12-19T04:03:27.390Z,13.60
2022-12-19T04:05:56.294Z,15.90
2022-12-19T04:08:24.513Z,15.20
2022-12-19T04:10:55.996Z,14.80
2022-12-19T04:13:52.115Z,13.68
2022-12-19T04:16:22.595Z,14.23
2022-12-19T04:18:57.806Z,15.50
2022-12-19T04:21:33.703Z,15.27
2022-12-19T04:24:11.707Z,15.60
2022-12-19T04:26:40.519Z,14.93
2022-12-19T04:29:11.783Z,15.02
2022-12-19T04:31:39.425Z,15.77
2022-12-19T04:34:06.488Z,15.75
2022-12-19T04:36:38.738Z,15.40
2022-12-19T04:39:06.119Z,15.18
2022-12-19T04:41:33.016Z,14.55
2022-12-19T04:44:00.054Z,18.17
2022-12-19T04:46:28.231Z,16.52
2022-12-19T04:48:55.285Z,16.30
2022-12-19T04:51:22.519Z,15.43
2022-12-19T04:53:49.472Z,15.52
2022-12-19T04:56:16.588Z,15.02
2022-12-19T04:58:43.609Z,15.50
2022-12-19T05:01:11.121Z,15.00
2022-12-19T05:03:38.158Z,15.80
2022-12-19T05:06:11.289Z,17.00
2022-12-19T05:08:40.503Z,15.95
2022-12-19T05:11:11.349Z,16.10
2022-12-19T05:13:41.561Z,15.80
2022-12-19T05:16:11.111Z,16.17
2022-12-19T05:18:39.030Z,16.15
2022-12-19T05:21:06.799Z,15.02
2022-12-19T05:23:34.418Z,15.60
2022-12-19T05:26:05.385Z,15.48
2022-12-19T05:28:32.903Z,15.10
2022-12-19T05:31:07.214Z,16.33
2022-12-19T05:33:34.788Z,16.25
2022-12-19T05:36:02.950Z,15.57
2022-12-19T05:38:30.094Z,16.15
2022-12-19T05:40:57.735Z,14.50
2022-12-19T05:43:24.809Z,16.92
2022-12-19T05:45:52.580Z,19.33
2022-12-19T05:48:19.879Z,16.88
2022-12-19T05:50:50.513Z,18.58
2022-12-19T05:53:21.944Z,16.95
2022-12-19T05:55:52.798Z,16.73
2022-12-19T05:58:19.921Z,18.45
2022-12-19T06:00:47.652Z,17.92
2022-12-19T06:03:14.627Z,17.40
2022-12-19T06:05:41.707Z,18.30
2022-12-19T06:08:09.455Z,19.02
2022-12-19T06:10:36.663Z,17.55
2022-12-19T06:13:03.557Z,18.17
2022-12-19T06:15:30.695Z,18.13
2022-12-19T06:17:57.763Z,18.95
2022-12-19T06:20:24.703Z,18.48
2022-12-19T06:22:51.673Z,19.05
2022-12-19T06:25:18.860Z,19.38
2022-12-19T06:27:46.487Z,19.33
2022-12-19T06:30:13.840Z,19.52
2022-12-19T06:32:41.457Z,19.20
2022-12-19T06:35:09.876Z,20.20
2022-12-19T06:37:39.343Z,19.15
2022-12-19T06:40:07.361Z,20.00
2022-12-19T06:42:34.337Z,18.45
2022-12-19T06:45:01.390Z,18.88
2022-12-19T06:47:28.620Z,19.30
2022-12-19T06:49:55.627Z,18.42
2022-12-19T06:52:23.389Z,19.27
2022-12-19T06:54:50.590Z,17.95
2022-12-19T06:57:17.716Z,20.05
2022-12-19T06:59:45.033Z,19.27
2022-12-19T07:02:27.499Z,19.58
2022-12-19T07:05:02.881Z,19.80
2022-12-19T07:07:30.832Z,20.45
2022-12-19T07:09:58.859Z,20.08
2022-12-19T07:12:27.393Z,22.00
2022-12-19T07:14:55.447Z,19.75
2022-12-19T07:17:24.395Z,19.08
2022-12-19T07:19:54.123Z,19.45
2022-12-19T07:22:21.917Z,18.52
2022-12-19T07:24:49.090Z,20.45
2022-12-19T07:27:16.361Z,18.20
2022-12-19T07:29:43.562Z,19.50
2022-12-19T07:32:11.169Z,20.48
2022-12-19T07:34:38.212Z,18.35
2022-12-19T07:37:05.519Z,19.73
2022-12-19T07:39:32.716Z,20.50
2022-12-19T07:41:59.854Z,19.38
2022-12-19T07:44:34.725Z,19.10
2022-12-19T07:47:02.252Z,18.80
2022-12-19T07:49:29.356Z,19.77
2022-12-19T07:51:56.500Z,19.25
2022-12-19T07:54:23.520Z,19.58
2022-12-19T07:56:50.444Z,19.73
2022-12-19T07:59:17.718Z,18.85
2022-12-19T08:01:44.897Z,19.23
2022-12-19T08:04:13.923Z,19.15
2022-12-19T08:06:41.622Z,19.63
2022-12-19T08:09:08.869Z,19.92
2022-12-19T08:11:35.900Z,19.42
2022-12-19T08:14:02.866Z,19.83
2022-12-19T08:16:30.004Z,17.88
2022-12-19T08:18:57.093Z,19.33
2022-12-19T08:21:25.095Z,18.80
2022-12-19T08:23:52.521Z,20.52
2022-12-19T08:26:25.477Z,20.25
2022-12-19T08:28:54.852Z,20.35
2022-12-19T08:31:26.946Z,18.70
2022-12-19T08:33:55.618Z,19.13
2022-12-19T08:36:23.551Z,19.45
2022-12-19T08:38:50.980Z,19.13
2022-12-19T08:41:18.310Z,20.15
2022-12-19T08:43:50.488Z,19.13
2022-12-19T08:46:18.637Z,19.50
2022-12-19T08:48:46.128Z,18.90
2022-12-19T08:51:15.489Z,18.13
2022-12-19T08:53:43.950Z,19.77
2022-12-19T08:56:14.109Z,18.20
2022-12-19T08:58:43.626Z,19.88
2022-12-19T09:01:19.455Z,19.35
2022-12-19T09:04:49.449Z,19.90
2022-12-19T09:06:35.356Z,18.70
2022-12-19T09:09:06.160Z,19.13
2022-12-19T09:11:35.898Z,17.92
2022-12-19T09:14:08.453Z,18.02
2022-12-19T09:16:35.553Z,18.90
2022-12-19T09:19:02.678Z,19.10
2022-12-19T09:21:30.217Z,19.48
2022-12-19T09:24:07.100Z,18.38
2022-12-19T09:26:35.741Z,18.00
2022-12-19T09:29:17.558Z,18.30
2022-12-19T09:31:50.463Z,19.80
2022-12-19T09:34:24.373Z,18.77
2022-12-19T09:37:01.315Z,18.42
2022-12-19T09:39:28.352Z,18.42
2022-12-19T09:42:25.998Z,20.45
2022-12-19T09:45:22.171Z,20.00
2022-12-19T09:48:00.261Z,18.85
2022-12-19T09:51:18.580Z,18.27
2022-12-19T09:54:00.543Z,20.40
2022-12-19T09:56:39.388Z,18.48
2022-12-19T09:59:31.799Z,18.13
2022-12-19T10:02:37.533Z,18.75
2022-12-19T10:05:19.701Z,19.52
2022-12-19T10:08:10.816Z,19.77
2022-12-19T10:12:45.865Z,20.50
2022-12-19T10:14:18.839Z,19.67
2022-12-19T10:17:23.521Z,19.63
2022-12-19T10:20:11.387Z,21.50
2022-12-19T10:23:12.815Z,20.92
2022-12-19T10:25:51.150Z,20.88
2022-12-19T10:28:18.568Z,23.23
2022-12-19T10:31:12.411Z,20.77
2022-12-19T10:33:47.570Z,19.70
2022-12-19T10:36:15.849Z,21.17
2022-12-19T10:38:51.288Z,20.58
2022-12-19T10:41:29.282Z,19.60
2022-12-19T10:44:05.894Z,20.50
2022-12-19T10:46:40.968Z,21.10
2022-12-19T10:49:15.106Z,19.70
2022-12-19T10:51:43.286Z,20.55
2022-12-19T10:54:10.295Z,19.40
2022-12-19T10:56:38.137Z,23.05
2022-12-19T10:59:20.022Z,22.08
2022-12-19T11:01:54.194Z,20.52
2022-12-19T11:04:36.944Z,20.70
2022-12-19T11:09:45.265Z,20.15
2022-12-19T11:13:32.240Z,21.83
2022-12-19T11:18:32.531Z,20.13
2022-12-19T11:26:13.469Z,22.10
2022-12-19T11:29:31.957Z,21.00
2022-12-19T11:32:51.136Z,20.25
2022-12-19T11:35:36.994Z,20.92
2022-12-19T11:38:09.050Z,18.98
2022-12-19T11:40:46.528Z,19.42
2022-12-19T11:43:49.549Z,19.45
2022-12-19T11:46:33.292Z,20.52
2022-12-19T11:49:09.080Z,20.23
2022-12-19T11:51:51.247Z,21.75
2022-12-19T11:54:42.450Z,20.80
2022-12-19T11:57:12.516Z,20.73
2022-12-19T11:59:41.288Z,21.25
2022-12-19T12:02:46.138Z,21.42
2022-12-19T12:05:48.322Z,20.45
2022-12-19T12:11:01.178Z,20.88
2022-12-19T12:17:21.258Z,21.92
2022-12-19T12:22:43.736Z,20.23
2022-12-19T12:30:59.453Z,21.45
2022-12-19T12:31:17.153Z,19.77
2022-12-19T12:31:23.447Z,20.55
2022-12-19T12:31:44.724Z,21.67
2022-12-19T12:32:02.522Z,20.20
2022-12-19T12:35:12.681Z,22.30
2022-12-19T12:39:29.847Z,22.02
2022-12-19T12:42:37.168Z,22.50
2022-12-19T12:45:22.990Z,22.15
2022-12-19T12:47:54.203Z,20.88
2022-12-19T12:50:25.474Z,25.90
2022-12-19T12:52:59.692Z,23.70
2022-12-19T12:55:33.872Z,26.17
2022-12-19T12:58:01.163Z,22.55
2022-12-19T13:00:29.209Z,24.70
2022-12-19T13:03:15.950Z,24.67
2022-12-19T13:05:54.703Z,23.20
2022-12-19T13:08:25.315Z,21.98
2022-12-19T13:11:38.729Z,21.27
2022-12-19T13:14:26.717Z,20.33
2022-12-19T13:16:54.570Z,21.35
2022-12-19T13:19:28.869Z,20.98
2022-12-19T13:22:08.872Z,21.92
2022-12-19T13:24:39.119Z,22.85
2022-12-19T13:27:21.596Z,21.58
2022-12-19T13:30:12.593Z,20.25
2022-12-19T13:32:39.703Z,21.48
2022-12-19T13:36:41.185Z,20.05
2022-12-19T13:39:58.100Z,22.75
2022-12-19T13:41:00.273Z,21.80
2022-12-19T13:43:48.547Z,23.75
2022-12-19T13:46:42.968Z,22.02
2022-12-19T13:49:33.805Z,22.70
2022-12-19T13:52:03.057Z,21.08
2022-12-19T13:54:37.003Z,22.08
2022-12-19T13:57:23.053Z,19.65
2022-12-19T13:59:59.568Z,21.92
2022-12-19T14:02:44.519Z,22.13
2022-12-19T14:06:14.266Z,22.45
2022-12-19T14:08:25.065Z,20.10
2022-12-19T14:11:32.061Z,20.98
2022-12-19T14:14:20.400Z,23.67
2022-12-19T14:16:51.890Z,22.70
2022-12-19T14:19:31.005Z,22.63
2022-12-19T14:22:15.782Z,21.15
2022-12-19T14:25:32.141Z,22.52
2022-12-19T14:28:24.787Z,21.92
2022-12-19T14:30:58.239Z,23.85
2022-12-19T14:34:10.949Z,23.75
2022-12-19T14:36:36.551Z,23.40
2022-12-19T14:39:27.112Z,23.67
2022-12-19T14:42:12.232Z,24.23
2022-12-19T14:52:50.773Z,23.15
2022-12-19T14:54:10.587Z,24.13
2022-12-19T14:54:13.172Z,22.27
2022-12-19T14:54:40.851Z,23.95
2022-12-19T14:56:57.762Z,22.05
2022-12-19T14:59:06.306Z,21.83
2022-12-19T15:01:35.421Z,22.58
2022-12-19T15:04:50.396Z,23.58
2022-12-19T15:07:07.695Z,26.92
2022-12-19T15:11:08.478Z,23.65
2022-12-19T15:14:57.396Z,23.35
2022-12-19T15:16:03.273Z,23.95
2022-12-19T15:18:33.643Z,24.33
2022-12-19T15:21:04.132Z,24.83
2022-12-19T15:23:32.313Z,25.27
2022-12-19T15:26:18.547Z,25.90
2022-12-19T15:28:51.802Z,25.17
2022-12-19T15:32:02.446Z,23.58
2022-12-19T15:34:38.035Z,23.88
2022-12-19T15:37:20.278Z,23.58
2022-12-19T15:39:49.190Z,22.65
2022-12-19T15:42:38.537Z,24.75
2022-12-19T15:45:08.121Z,25.92
2022-12-19T15:47:37.292Z,23.50
2022-12-19T15:50:27.492Z,23.60
2022-12-19T15:52:57.786Z,24.17
2022-12-19T15:55:28.176Z,22.98
2022-12-19T15:58:02.264Z,26.25
2022-12-19T16:00:34.089Z,24.17
2022-12-19T16:05:49.412Z,23.65
2022-12-19T16:08:21.866Z,26.83
2022-12-19T16:11:01.021Z,28.42
2022-12-19T16:13:31.234Z,24.35
2022-12-19T16:16:01.796Z,23.65
2022-12-19T16:18:29.499Z,24.83
2022-12-19T16:20:58.119Z,23.38
2022-12-19T16:23:27.088Z,25.63
2022-12-19T16:25:54.647Z,24.45
2022-12-19T16:28:31.941Z,25.55
2022-12-19T16:31:00.613Z,24.08
2022-12-19T16:33:31.579Z,22.52
2022-12-19T16:36:07.195Z,22.52
2022-12-19T16:38:35.015Z,23.05
2022-12-19T16:41:02.270Z,22.20
2022-12-19T16:43:47.739Z,22.88
2022-12-19T16:46:20.694Z,24.05
2022-12-19T16:48:48.167Z,22.17
2022-12-19T16:51:23.627Z,20.60
2022-12-19T16:53:54.186Z,21.75
2022-12-19T16:56:25.690Z,23.15
2022-12-19T16:58:53.792Z,21.40
2022-12-19T17:01:20.892Z,22.40
2022-12-19T17:03:48.145Z,20.70
2022-12-19T17:06:17.964Z,19.67
2022-12-19T17:08:45.495Z,18.40
2022-12-19T17:11:25.274Z,18.63
2022-12-19T17:14:06.468Z,21.92
2022-12-19T17:16:33.647Z,20.30
2022-12-19T17:19:01.453Z,18.90
2022-12-19T17:21:28.673Z,18.90
2022-12-19T17:23:56.703Z,18.63
2022-12-19T17:26:24.071Z,20.30
2022-12-19T17:28:51.999Z,20.95
2022-12-19T17:31:25.867Z,20.23
2022-12-19T17:33:58.440Z,20.52
2022-12-19T17:36:37.079Z,19.02
2022-12-19T17:39:18.026Z,19.52
2022-12-19T17:41:45.148Z,17.65
2022-12-19T17:44:12.385Z,22.15
2022-12-19T17:46:39.761Z,21.90
2022-12-19T17:49:13.571Z,20.42
2022-12-19T17:51:40.637Z,20.15
2022-12-19T17:54:11.770Z,21.13
2022-12-19T17:56:38.695Z,19.92
2022-12-19T17:59:06.077Z,21.58
2022-12-19T18:01:34.724Z,19.70
2022-12-19T18:04:01.941Z,21.23
2022-12-19T18:06:31.233Z,19.73
2022-12-19T18:08:59.557Z,19.67
2022-12-19T18:11:27.147Z,19.73
2022-12-19T18:13:54.615Z,18.70
2022-12-19T18:16:28.494Z,20.73
2022-12-19T18:18:57.267Z,20.98
2022-12-19T18:21:24.838Z,18.75
2022-12-19T18:23:51.902Z,20.13
2022-12-19T18:26:23.955Z,21.08
2022-12-19T18:28:50.979Z,19.95
2022-12-19T18:31:27.306Z,19.48
2022-12-19T18:33:55.249Z,21.08
2022-12-19T18:36:28.179Z,22.60
2022-12-19T18:38:56.414Z,20.38
2022-12-19T18:41:23.711Z,20.75
2022-12-19T18:43:50.901Z,22.60
2022-12-19T18:46:26.369Z,20.50
2022-12-19T18:48:56.944Z,22.70
2022-12-19T18:51:25.268Z,22.48
2022-12-19T18:53:55.227Z,22.55
2022-12-19T18:56:22.467Z,20.08
2022-12-19T18:58:49.707Z,22.10
2022-12-19T19:01:21.412Z,22.55
2022-12-19T19:03:56.634Z,21.35
2022-12-19T19:06:26.340Z,21.48
2022-12-19T19:08:56.544Z,21.48
2022-12-19T19:11:46.614Z,22.00
2022-12-19T19:14:13.830Z,20.95
2022-12-19T19:16:41.089Z,22.08
2022-12-19T19:19:11.903Z,21.45
2022-12-19T19:21:40.348Z,20.58
2022-12-19T19:24:20.725Z,20.73
2022-12-19T19:26:48.374Z,20.40
2022-12-19T19:29:16.171Z,17.77
2022-12-19T19:31:48.315Z,21.20
2022-12-19T19:34:27.196Z,18.77
2022-12-19T19:36:57.486Z,18.35
2022-12-19T19:39:25.544Z,19.20
2022-12-19T19:41:53.773Z,19.65
2022-12-19T19:44:22.074Z,19.38
2022-12-19T19:46:50.060Z,17.05
2022-12-19T19:49:17.356Z,20.80
2022-12-19T19:51:44.500Z,18.52
2022-12-19T19:54:11.543Z,19.80
2022-12-19T19:56:39.427Z,19.00
2022-12-19T19:59:08.674Z,18.80
2022-12-19T20:01:37.182Z,18.25
2022-12-19T20:04:04.942Z,19.30
2022-12-19T20:06:32.608Z,18.50
2022-12-19T20:09:00.926Z,18.75
2022-12-19T20:11:28.863Z,17.42
2022-12-19T20:13:56.627Z,17.50
2022-12-19T20:16:23.662Z,17.88
2022-12-19T20:18:52.950Z,17.80
2022-12-19T20:21:21.423Z,18.10
2022-12-19T20:23:49.571Z,16.60
2022-12-19T20:26:17.387Z,17.00
2022-12-19T20:28:49.560Z,17.50
2022-12-19T20:31:25.206Z,16.50
2022-12-19T20:33:55.627Z,16.83
2022-12-19T20:36:25.637Z,16.42
2022-12-19T20:38:52.914Z,17.45
2022-12-19T20:41:19.995Z,17.33
2022-12-19T20:43:48.351Z,16.42
2022-12-19T20:46:18.309Z,14.48
2022-12-19T20:48:46.350Z,17.55
2022-12-19T20:51:15.542Z,15.25
2022-12-19T20:53:42.990Z,16.45
2022-12-19T20:56:14.650Z,16.30
2022-12-19T20:58:43.203Z,15.52
2022-12-19T21:01:19.879Z,18.25
2022-12-19T21:03:48.619Z,16.33
2022-12-19T21:06:18.387Z,15.38
2022-12-19T21:08:45.887Z,17.27
2022-12-19T21:11:15.972Z,16.33
2022-12-19T21:13:43.646Z,17.15
2022-12-19T21:16:15.309Z,16.67
2022-12-19T21:18:45.218Z,17.70
2022-12-19T21:21:18.676Z,17.20
2022-12-19T21:23:47.199Z,17.67
2022-12-19T21:26:14.484Z,18.30
2022-12-19T21:28:41.994Z,17.75
2022-12-19T21:31:22.868Z,18.25
2022-12-19T21:33:51.237Z,18.50
2022-12-19T21:36:20.740Z,18.48
2022-12-19T21:38:49.906Z,17.73
2022-12-19T21:41:21.037Z,18.55
2022-12-19T21:43:52.480Z,18.58
2022-12-19T21:46:22.387Z,16.63
2022-12-19T21:48:51.169Z,18.13
2022-12-19T21:51:20.267Z,19.48
2022-12-19T21:53:47.738Z,18.42
2022-12-19T21:56:26.207Z,18.50
2022-12-19T21:58:57.108Z,19.85
2022-12-19T22:01:27.031Z,19.80
2022-12-19T22:04:02.170Z,19.23
2022-12-19T22:06:32.079Z,19.73
2022-12-19T22:09:01.083Z,19.15
2022-12-19T22:11:29.563Z,18.98
2022-12-19T22:13:58.398Z,19.30
2022-12-19T22:16:25.541Z,18.70
2022-12-19T22:18:53.140Z,20.58
2022-12-19T22:21:20.789Z,20.65
2022-12-19T22:23:48.808Z,19.10
2022-12-19T22:26:22.459Z,18.40
2022-12-19T22:28:52.600Z,19.33
2022-12-19T22:31:27.536Z,18.70
2022-12-19T22:33:58.978Z,22.17
2022-12-19T22:36:28.879Z,20.58
2022-12-19T22:38:56.853Z,19.90
2022-12-19T22:41:24.447Z,20.15
2022-12-19T22:43:52.200Z,19.67
2022-12-19T22:46:28.403Z,20.73
2022-12-19T22:48:58.128Z,18.52
2022-12-19T22:51:26.579Z,20.98
2022-12-19T22:53:54.390Z,19.83
2022-12-19T22:56:25.340Z,20.95
2022-12-19T22:58:56.250Z,21.25
2022-12-19T23:01:32.660Z,20.55
2022-12-19T23:06:31.152Z,20.90
2022-12-19T23:08:58.264Z,20.05
2022-12-19T23:11:40.017Z,20.00
2022-12-19T23:14:09.487Z,21.85
2022-12-19T23:16:36.721Z,21.38
2022-12-19T23:19:05.859Z,20.58
2022-12-19T23:21:32.943Z,20.15
2022-12-19T23:24:00.453Z,20.63
2022-12-19T23:26:30.501Z,18.73
2022-12-19T23:29:04.415Z,21.40
2022-12-19T23:31:33.067Z,22.75
2022-12-19T23:34:01.888Z,21.85
2022-12-19T23:39:17.043Z,20.88
2022-12-19T23:41:44.152Z,18.75
2022-12-19T23:44:11.580Z,21.08
2022-12-19T23:46:38.733Z,22.48
2022-12-19T23:49:05.786Z,19.08
2022-12-19T23:51:32.945Z,20.50
2022-12-19T23:53:59.877Z,20.27
2022-12-19T23:56:29.594Z,19.50
2022-12-19T23:58:58.540Z,20.17
